Pagrindinis puslapis
METAR-TAF:

METAR-TAF

Oro uostai :

Sveg, Švedija

platuma: 62-02-52N, ilguma: 014-25-22E, Aukštis: 359 m

Dabartinis oras

Ataskaita buvo paskelbta 42 minutes, ne 12:50 UTC
Vėjas 8 kt iš Vakarų/Pietvakarių, svyruoja nuo Pietų ir Vakarų/Šiaurės Vakarų
Temperatūra 27°C
Drėgmė 21%
Slėgis 1025 hPa
Matomumas 10 km arba daugiau

METAR: ESND 011250Z AUTO 24008KT 190V300 9999 FEW092/// 27/03 Q1025

Laikas: 15:32 (13:32 UTC)


TAF: trūkstamas

Orai ataskaitas ir orų prognozės (METAR, TAF).

turimą stotys yra geltonos ir raudonos taškus žemėlapyje.

Perkelti pele per norėdami pamatyti stoties vardą.

Tada spustelėkite, norėdami matyti oro stebėjimo ir prognozės.

Norėdami pakeisti žemėlapį: spustelėkite ant žalios mygtukų su juodo kryžiaus žemyn,; žalią mygtuką su brūkšneliu, jei norite nutolinti; arba žalių rodyklių gretimoms žemėlapius.


METAR-TAF: